sensor_id;sensor_type;location;lat;lon;timestamp;pressure;altitude;pressure_sealevel;temperature;humidity
24045;BME280;26257;49.442;8.422;2022-12-19T00:00:44;101493.44;;;3.81;70.53
24045;BME280;26257;49.442;8.422;2022-12-19T00:03:11;101485.88;;;3.70;70.26
24045;BME280;26257;49.442;8.422;2022-12-19T00:05:37;101484.59;;;3.79;68.84
24045;BME280;26257;49.442;8.422;2022-12-19T00:08:10;101489.91;;;3.64;68.89
24045;BME280;26257;49.442;8.422;2022-12-19T00:11:01;101497.22;;;3.39;67.67
24045;BME280;26257;49.442;8.422;2022-12-19T00:13:31;101483.44;;;3.57;68.43
24045;BME280;26257;49.442;8.422;2022-12-19T00:16:03;101488.47;;;3.38;69.00
24045;BME280;26257;49.442;8.422;2022-12-19T00:18:34;101481.69;;;3.42;68.13
24045;BME280;26257;49.442;8.422;2022-12-19T00:21:03;101460.78;;;3.42;68.72
24045;BME280;26257;49.442;8.422;2022-12-19T00:23:32;101461.22;;;3.33;67.94
24045;BME280;26257;49.442;8.422;2022-12-19T00:26:13;101464.16;;;3.23;67.37
24045;BME280;26257;49.442;8.422;2022-12-19T00:28:40;101453.44;;;3.35;68.12
24045;BME280;26257;49.442;8.422;2022-12-19T00:31:06;101451.81;;;3.37;67.57
24045;BME280;26257;49.442;8.422;2022-12-19T00:33:32;101457.00;;;3.67;66.31
24045;BME280;26257;49.442;8.422;2022-12-19T00:35:59;101455.69;;;3.59;66.43
24045;BME280;26257;49.442;8.422;2022-12-19T00:38:25;101463.25;;;3.55;66.68
24045;BME280;26257;49.442;8.422;2022-12-19T00:40:50;101454.44;;;3.53;67.08
24045;BME280;26257;49.442;8.422;2022-12-19T00:43:16;101440.59;;;3.54;67.46
24045;BME280;26257;49.442;8.422;2022-12-19T00:45:41;101447.69;;;3.56;66.55
24045;BME280;26257;49.442;8.422;2022-12-19T00:48:07;101448.56;;;3.73;67.03
24045;BME280;26257;49.442;8.422;2022-12-19T00:50:32;101435.19;;;3.51;66.90
24045;BME280;26257;49.442;8.422;2022-12-19T00:52:57;101442.28;;;3.37;68.07
24045;BME280;26257;49.442;8.422;2022-12-19T00:55:23;101440.88;;;3.60;66.68
24045;BME280;26257;49.442;8.422;2022-12-19T00:57:48;101441.84;;;3.78;66.73
24045;BME280;26257;49.442;8.422;2022-12-19T01:00:15;101444.91;;;3.86;66.18
24045;BME280;26257;49.442;8.422;2022-12-19T01:02:41;101438.09;;;3.73;66.71
24045;BME280;26257;49.442;8.422;2022-12-19T01:05:07;101436.00;;;3.66;67.80
24045;BME280;26257;49.442;8.422;2022-12-19T01:07:33;101435.66;;;3.60;68.25
24045;BME280;26257;49.442;8.422;2022-12-19T01:09:58;101442.84;;;3.96;67.37
24045;BME280;26257;49.442;8.422;2022-12-19T01:12:24;101444.63;;;3.97;67.16
24045;BME280;26257;49.442;8.422;2022-12-19T01:15:08;101435.97;;;4.14;66.56
24045;BME280;26257;49.442;8.422;2022-12-19T01:17:34;101434.66;;;4.06;67.13
24045;BME280;26257;49.442;8.422;2022-12-19T01:19:59;101444.47;;;3.94;67.13
24045;BME280;26257;49.442;8.422;2022-12-19T01:22:26;101432.97;;;3.91;67.82
24045;BME280;26257;49.442;8.422;2022-12-19T01:24:52;101434.22;;;4.15;66.91
24045;BME280;26257;49.442;8.422;2022-12-19T01:27:17;101431.75;;;3.84;67.70
24045;BME280;26257;49.442;8.422;2022-12-19T01:29:43;101441.84;;;3.78;68.25
24045;BME280;26257;49.442;8.422;2022-12-19T01:32:08;101432.22;;;3.93;67.05
24045;BME280;26257;49.442;8.422;2022-12-19T01:34:33;101420.88;;;3.93;68.35
24045;BME280;26257;49.442;8.422;2022-12-19T01:36:59;101418.97;;;4.06;67.01
24045;BME280;26257;49.442;8.422;2022-12-19T01:39:24;101424.22;;;3.90;67.86
24045;BME280;26257;49.442;8.422;2022-12-19T01:41:51;101425.69;;;4.01;67.61
24045;BME280;26257;49.442;8.422;2022-12-19T01:44:16;101421.25;;;4.00;67.77
24045;BME280;26257;49.442;8.422;2022-12-19T01:46:44;101427.75;;;4.24;67.22
24045;BME280;26257;49.442;8.422;2022-12-19T01:49:31;101416.59;;;4.11;66.89
24045;BME280;26257;49.442;8.422;2022-12-19T01:52:00;101412.13;;;3.92;67.26
24045;BME280;26257;49.442;8.422;2022-12-19T01:54:37;101417.00;;;4.02;67.70
24045;BME280;26257;49.442;8.422;2022-12-19T01:57:07;101411.00;;;3.87;67.73
24045;BME280;26257;49.442;8.422;2022-12-19T01:59:38;101403.16;;;3.87;67.99
24045;BME280;26257;49.442;8.422;2022-12-19T02:02:18;101402.47;;;3.91;67.61
24045;BME280;26257;49.442;8.422;2022-12-19T02:04:45;101410.47;;;3.94;67.90
24045;BME280;26257;49.442;8.422;2022-12-19T02:07:13;101407.44;;;4.03;67.70
24045;BME280;26257;49.442;8.422;2022-12-19T02:09:39;101410.31;;;3.91;67.50
24045;BME280;26257;49.442;8.422;2022-12-19T02:12:04;101409.59;;;4.27;66.46
24045;BME280;26257;49.442;8.422;2022-12-19T02:14:30;101412.41;;;4.14;66.73
24045;BME280;26257;49.442;8.422;2022-12-19T02:19:44;101401.81;;;4.11;66.85
24045;BME280;26257;49.442;8.422;2022-12-19T02:31:08;101393.56;;;4.04;66.89
24045;BME280;26257;49.442;8.422;2022-12-19T02:33:52;101379.56;;;4.19;66.84
24045;BME280;26257;49.442;8.422;2022-12-19T02:36:25;101395.78;;;3.96;67.05
24045;BME280;26257;49.442;8.422;2022-12-19T02:38:58;101387.97;;;3.80;67.09
24045;BME280;26257;49.442;8.422;2022-12-19T02:41:34;101383.59;;;3.97;67.55
24045;BME280;26257;49.442;8.422;2022-12-19T02:44:11;101387.81;;;3.77;68.58
24045;BME280;26257;49.442;8.422;2022-12-19T02:46:41;101390.69;;;3.99;67.74
24045;BME280;26257;49.442;8.422;2022-12-19T03:11:55;101398.44;;;3.48;78.51
24045;BME280;26257;49.442;8.422;2022-12-19T03:14:23;101391.50;;;3.48;75.74
24045;BME280;26257;49.442;8.422;2022-12-19T03:16:51;101389.97;;;3.52;73.20
24045;BME280;26257;49.442;8.422;2022-12-19T03:19:17;101392.06;;;3.27;73.23
24045;BME280;26257;49.442;8.422;2022-12-19T03:21:44;101394.09;;;3.16;73.18
24045;BME280;26257;49.442;8.422;2022-12-19T03:24:11;101382.31;;;3.39;72.41
24045;BME280;26257;49.442;8.422;2022-12-19T03:26:48;101396.34;;;3.41;72.41
24045;BME280;26257;49.442;8.422;2022-12-19T03:29:31;101391.16;;;3.26;72.37
24045;BME280;26257;49.442;8.422;2022-12-19T03:32:00;101388.66;;;3.28;72.99
24045;BME280;26257;49.442;8.422;2022-12-19T03:36:59;101394.69;;;3.75;70.57
24045;BME280;26257;49.442;8.422;2022-12-19T03:39:27;101374.94;;;3.64;70.13
24045;BME280;26257;49.442;8.422;2022-12-19T03:41:55;101386.66;;;3.88;69.61
24045;BME280;26257;49.442;8.422;2022-12-19T03:44:41;101392.31;;;3.80;71.02
24045;BME280;26257;49.442;8.422;2022-12-19T03:47:13;101386.19;;;3.63;71.89
24045;BME280;26257;49.442;8.422;2022-12-19T03:49:39;101383.91;;;3.69;72.74
24045;BME280;26257;49.442;8.422;2022-12-19T03:57:40;101390.09;;;3.55;75.44
24045;BME280;26257;49.442;8.422;2022-12-19T04:00:08;101385.16;;;3.59;76.37
24045;BME280;26257;49.442;8.422;2022-12-19T04:02:37;101385.38;;;3.32;78.64
24045;BME280;26257;49.442;8.422;2022-12-19T04:05:07;101384.41;;;3.30;79.20
24045;BME280;26257;49.442;8.422;2022-12-19T04:07:34;101383.44;;;3.28;80.03
24045;BME280;26257;49.442;8.422;2022-12-19T04:10:04;101382.53;;;3.59;79.04
24045;BME280;26257;49.442;8.422;2022-12-19T04:12:33;101380.31;;;3.67;78.67
24045;BME280;26257;49.442;8.422;2022-12-19T04:15:01;101394.59;;;3.57;79.34
24045;BME280;26257;49.442;8.422;2022-12-19T04:20:21;101400.81;;;3.59;78.66
24045;BME280;26257;49.442;8.422;2022-12-19T04:23:03;101393.56;;;3.54;77.88
24045;BME280;26257;49.442;8.422;2022-12-19T04:25:35;101385.38;;;3.64;77.87
24045;BME280;26257;49.442;8.422;2022-12-19T04:28:06;101380.50;;;3.38;79.17
24045;BME280;26257;49.442;8.422;2022-12-19T04:30:36;101380.91;;;3.95;77.21
24045;BME280;26257;49.442;8.422;2022-12-19T04:33:03;101390.78;;;3.67;77.16
24045;BME280;26257;49.442;8.422;2022-12-19T04:35:29;101380.50;;;3.70;77.17
24045;BME280;26257;49.442;8.422;2022-12-19T04:37:54;101369.19;;;3.71;77.38
24045;BME280;26257;49.442;8.422;2022-12-19T04:40:20;101363.97;;;3.55;76.47
24045;BME280;26257;49.442;8.422;2022-12-19T04:42:46;101356.31;;;3.42;78.20
24045;BME280;26257;49.442;8.422;2022-12-19T04:45:11;101363.03;;;3.37;77.91
24045;BME280;26257;49.442;8.422;2022-12-19T04:47:36;101352.50;;;3.51;77.47
24045;BME280;26257;49.442;8.422;2022-12-19T04:50:03;101360.16;;;3.32;78.08
24045;BME280;26257;49.442;8.422;2022-12-19T04:52:28;101364.16;;;3.58;78.05
24045;BME280;26257;49.442;8.422;2022-12-19T04:54:54;101353.31;;;3.18;78.15
24045;BME280;26257;49.442;8.422;2022-12-19T04:57:19;101344.41;;;3.47;78.34
24045;BME280;26257;49.442;8.422;2022-12-19T04:59:44;101346.38;;;3.51;78.26
24045;BME280;26257;49.442;8.422;2022-12-19T05:02:10;101334.00;;;3.31;78.67
24045;BME280;26257;49.442;8.422;2022-12-19T05:04:35;101341.59;;;3.60;77.45
24045;BME280;26257;49.442;8.422;2022-12-19T05:07:00;101348.63;;;3.61;78.74
24045;BME280;26257;49.442;8.422;2022-12-19T05:09:26;101335.69;;;3.46;78.83
24045;BME280;26257;49.442;8.422;2022-12-19T05:11:51;101341.59;;;3.60;78.76
24045;BME280;26257;49.442;8.422;2022-12-19T05:14:17;101346.59;;;3.55;79.13
24045;BME280;26257;49.442;8.422;2022-12-19T05:16:42;101351.13;;;3.75;78.40
24045;BME280;26257;49.442;8.422;2022-12-19T05:19:07;101338.38;;;3.82;77.54
24045;BME280;26257;49.442;8.422;2022-12-19T05:21:33;101341.09;;;3.83;78.46
24045;BME280;26257;49.442;8.422;2022-12-19T05:23:58;101331.47;;;3.66;78.75
24045;BME280;26257;49.442;8.422;2022-12-19T05:26:24;101317.22;;;3.93;78.02
24045;BME280;26257;49.442;8.422;2022-12-19T05:28:49;101320.63;;;3.74;78.08
24045;BME280;26257;49.442;8.422;2022-12-19T05:31:17;101320.63;;;3.92;78.14
24045;BME280;26257;49.442;8.422;2022-12-19T05:33:44;101331.25;;;3.95;78.01
24045;BME280;26257;49.442;8.422;2022-12-19T05:36:11;101343.38;;;4.11;77.28
24045;BME280;26257;49.442;8.422;2022-12-19T05:38:37;101332.06;;;3.94;77.43
24045;BME280;26257;49.442;8.422;2022-12-19T05:41:12;101323.66;;;3.50;79.09
24045;BME280;26257;49.442;8.422;2022-12-19T05:43:38;101327.28;;;3.52;80.03
24045;BME280;26257;49.442;8.422;2022-12-19T05:46:04;101327.56;;;3.58;79.98
24045;BME280;26257;49.442;8.422;2022-12-19T05:48:30;101325.53;;;3.86;79.26
24045;BME280;26257;49.442;8.422;2022-12-19T05:50:56;101328.69;;;3.79;78.96
24045;BME280;26257;49.442;8.422;2022-12-19T05:53:22;101336.06;;;3.70;80.69
24045;BME280;26257;49.442;8.422;2022-12-19T05:55:48;101327.38;;;4.05;79.02
24045;BME280;26257;49.442;8.422;2022-12-19T05:58:13;101345.31;;;3.81;80.78
24045;BME280;26257;49.442;8.422;2022-12-19T06:00:39;101332.94;;;3.77;81.05
24045;BME280;26257;49.442;8.422;2022-12-19T06:03:04;101335.91;;;4.18;79.72
24045;BME280;26257;49.442;8.422;2022-12-19T06:05:30;101335.91;;;4.36;78.07
24045;BME280;26257;49.442;8.422;2022-12-19T06:07:56;101341.81;;;4.14;78.96
24045;BME280;26257;49.442;8.422;2022-12-19T06:10:21;101335.97;;;4.20;79.27
24045;BME280;26257;49.442;8.422;2022-12-19T06:12:46;101333.88;;;4.30;79.46
24045;BME280;26257;49.442;8.422;2022-12-19T06:15:12;101329.28;;;3.91;80.88
24045;BME280;26257;49.442;8.422;2022-12-19T06:17:38;101336.44;;;4.11;80.56
24045;BME280;26257;49.442;8.422;2022-12-19T06:20:04;101330.66;;;4.18;80.90
24045;BME280;26257;49.442;8.422;2022-12-19T06:22:29;101325.00;;;4.27;79.62
24045;BME280;26257;49.442;8.422;2022-12-19T06:24:55;101327.47;;;4.06;80.59
24045;BME280;26257;49.442;8.422;2022-12-19T06:27:20;101321.22;;;4.04;80.57
24045;BME280;26257;49.442;8.422;2022-12-19T06:29:46;101326.34;;;4.19;80.78
24045;BME280;26257;49.442;8.422;2022-12-19T06:32:11;101331.25;;;4.66;78.67
24045;BME280;26257;49.442;8.422;2022-12-19T06:34:36;101326.88;;;4.29;80.29
24045;BME280;26257;49.442;8.422;2022-12-19T06:37:02;101325.50;;;4.55;79.94
24045;BME280;26257;49.442;8.422;2022-12-19T06:39:27;101320.78;;;4.66;79.25
24045;BME280;26257;49.442;8.422;2022-12-19T06:41:53;101329.16;;;4.41;79.59
24045;BME280;26257;49.442;8.422;2022-12-19T06:44:36;101325.88;;;4.63;80.99
24045;BME280;26257;49.442;8.422;2022-12-19T06:47:04;101332.59;;;4.58;80.63
24045;BME280;26257;49.442;8.422;2022-12-19T06:49:31;101335.75;;;4.51;80.08
24045;BME280;26257;49.442;8.422;2022-12-19T06:51:56;101318.81;;;4.62;80.01
24045;BME280;26257;49.442;8.422;2022-12-19T06:54:22;101322.19;;;4.59;81.09
24045;BME280;26257;49.442;8.422;2022-12-19T06:56:47;101320.06;;;4.51;80.27
24045;BME280;26257;49.442;8.422;2022-12-19T06:59:14;101312.53;;;4.76;81.13
24045;BME280;26257;49.442;8.422;2022-12-19T07:01:56;101316.44;;;4.66;80.19
24045;BME280;26257;49.442;8.422;2022-12-19T07:06:53;101315.56;;;4.66;81.09
24045;BME280;26257;49.442;8.422;2022-12-19T07:09:19;101315.09;;;4.57;82.19
24045;BME280;26257;49.442;8.422;2022-12-19T07:11:45;101308.47;;;4.82;80.59
24045;BME280;26257;49.442;8.422;2022-12-19T07:14:11;101312.47;;;4.93;80.13
24045;BME280;26257;49.442;8.422;2022-12-19T07:16:36;101309.09;;;4.77;80.39
24045;BME280;26257;49.442;8.422;2022-12-19T07:19:03;101310.72;;;4.92;79.44
24045;BME280;26257;49.442;8.422;2022-12-19T07:21:28;101317.25;;;5.02;79.78
24045;BME280;26257;49.442;8.422;2022-12-19T07:23:54;101311.34;;;5.25;78.52
24045;BME280;26257;49.442;8.422;2022-12-19T07:26:19;101320.97;;;5.45;76.72
24045;BME280;26257;49.442;8.422;2022-12-19T07:28:45;101329.19;;;5.15;77.87
24045;BME280;26257;49.442;8.422;2022-12-19T07:31:10;101318.84;;;5.18;78.73
24045;BME280;26257;49.442;8.422;2022-12-19T07:33:36;101328.19;;;4.93;80.23
24045;BME280;26257;49.442;8.422;2022-12-19T07:36:01;101314.28;;;4.94;79.89
24045;BME280;26257;49.442;8.422;2022-12-19T07:38:26;101314.84;;;5.07;82.98
24045;BME280;26257;49.442;8.422;2022-12-19T07:40:52;101310.38;;;5.23;82.00
24045;BME280;26257;49.442;8.422;2022-12-19T07:43:17;101310.41;;;5.63;79.57
24045;BME280;26257;49.442;8.422;2022-12-19T07:45:43;101325.66;;;5.33;80.69
24045;BME280;26257;49.442;8.422;2022-12-19T07:48:08;101328.16;;;5.49;79.92
24045;BME280;26257;49.442;8.422;2022-12-19T07:50:34;101327.41;;;5.73;77.76
24045;BME280;26257;49.442;8.422;2022-12-19T07:53:00;101328.06;;;5.67;78.70
24045;BME280;26257;49.442;8.422;2022-12-19T07:55:26;101325.09;;;5.59;78.77
24045;BME280;26257;49.442;8.422;2022-12-19T07:57:52;101337.03;;;5.53;79.01
24045;BME280;26257;49.442;8.422;2022-12-19T08:00:18;101333.53;;;5.33;79.40
24045;BME280;26257;49.442;8.422;2022-12-19T08:02:44;101334.06;;;5.65;77.34
24045;BME280;26257;49.442;8.422;2022-12-19T08:05:09;101325.94;;;5.79;76.89
24045;BME280;26257;49.442;8.422;2022-12-19T08:07:35;101330.38;;;5.80;76.22
24045;BME280;26257;49.442;8.422;2022-12-19T08:10:01;101326.31;;;5.68;76.63
24045;BME280;26257;49.442;8.422;2022-12-19T08:12:26;101321.91;;;5.67;77.34
24045;BME280;26257;49.442;8.422;2022-12-19T08:14:52;101320.38;;;5.72;77.59
24045;BME280;26257;49.442;8.422;2022-12-19T08:17:17;101328.38;;;5.75;77.46
24045;BME280;26257;49.442;8.422;2022-12-19T08:19:43;101311.78;;;5.95;76.74
24045;BME280;26257;49.442;8.422;2022-12-19T08:22:08;101315.44;;;5.98;75.75
24045;BME280;26257;49.442;8.422;2022-12-19T08:24:34;101320.06;;;6.04;76.28
24045;BME280;26257;49.442;8.422;2022-12-19T08:26:59;101319.41;;;5.70;76.53
24045;BME280;26257;49.442;8.422;2022-12-19T08:29:25;101322.94;;;5.70;77.85
24045;BME280;26257;49.442;8.422;2022-12-19T08:31:50;101330.63;;;5.66;78.04
24045;BME280;26257;49.442;8.422;2022-12-19T08:34:16;101314.78;;;5.83;77.82
24045;BME280;26257;49.442;8.422;2022-12-19T08:36:41;101324.72;;;6.11;76.60
24045;BME280;26257;49.442;8.422;2022-12-19T08:39:07;101310.84;;;6.13;75.69
24045;BME280;26257;49.442;8.422;2022-12-19T08:41:33;101319.75;;;6.39;74.81
24045;BME280;26257;49.442;8.422;2022-12-19T08:43:58;101318.63;;;6.33;74.88
24045;BME280;26257;49.442;8.422;2022-12-19T08:46:25;101306.34;;;6.11;75.55
24045;BME280;26257;49.442;8.422;2022-12-19T09:08:56;101291.06;;;5.61;97.23
24045;BME280;26257;49.442;8.422;2022-12-19T09:11:23;101284.81;;;5.57;90.05
24045;BME280;26257;49.442;8.422;2022-12-19T09:13:49;101272.28;;;5.50;87.71
24045;BME280;26257;49.442;8.422;2022-12-19T09:16:20;101272.81;;;5.63;86.80
24045;BME280;26257;49.442;8.422;2022-12-19T09:18:48;101268.47;;;5.84;84.76
24045;BME280;26257;49.442;8.422;2022-12-19T09:21:15;101283.34;;;6.04;83.12
24045;BME280;26257;49.442;8.422;2022-12-19T09:23:41;101295.94;;;6.12;82.08
24045;BME280;26257;49.442;8.422;2022-12-19T09:26:09;101292.41;;;6.12;81.29
24045;BME280;26257;49.442;8.422;2022-12-19T09:28:36;101293.53;;;5.96;82.37
24045;BME280;26257;49.442;8.422;2022-12-19T09:31:15;101295.28;;;6.18;81.01
24045;BME280;26257;49.442;8.422;2022-12-19T09:33:41;101285.91;;;6.23;80.45
24045;BME280;26257;49.442;8.422;2022-12-19T09:36:11;101285.97;;;6.04;80.34
24045;BME280;26257;49.442;8.422;2022-12-19T09:38:37;101288.13;;;6.14;80.55
24045;BME280;26257;49.442;8.422;2022-12-19T09:46:54;101273.84;;;6.28;80.43
24045;BME280;26257;49.442;8.422;2022-12-19T09:49:24;101275.50;;;6.26;80.89
24045;BME280;26257;49.442;8.422;2022-12-19T09:52:34;101267.72;;;6.07;80.86
24045;BME280;26257;49.442;8.422;2022-12-19T09:55:05;101267.53;;;6.23;79.65
24045;BME280;26257;49.442;8.422;2022-12-19T09:57:39;101281.38;;;5.79;81.06
24045;BME280;26257;49.442;8.422;2022-12-19T10:00:11;101279.53;;;6.18;80.37
24045;BME280;26257;49.442;8.422;2022-12-19T10:05:21;101270.63;;;6.35;79.56
24045;BME280;26257;49.442;8.422;2022-12-19T10:07:49;101277.13;;;6.45;78.60
24045;BME280;26257;49.442;8.422;2022-12-19T10:10:20;101262.47;;;6.72;77.51
24045;BME280;26257;49.442;8.422;2022-12-19T10:18:46;101253.16;;;6.58;77.23
24045;BME280;26257;49.442;8.422;2022-12-19T10:21:52;101239.31;;;6.62;78.04
24045;BME280;26257;49.442;8.422;2022-12-19T10:26:59;101241.53;;;6.51;78.37
24045;BME280;26257;49.442;8.422;2022-12-19T10:34:42;101242.59;;;6.56;79.28
24045;BME280;26257;49.442;8.422;2022-12-19T10:40:12;101235.38;;;6.51;79.90
24045;BME280;26257;49.442;8.422;2022-12-19T10:42:59;101221.69;;;6.81;78.48
24045;BME280;26257;49.442;8.422;2022-12-19T10:45:46;101231.66;;;6.68;78.06
24045;BME280;26257;49.442;8.422;2022-12-19T10:48:19;101223.97;;;6.72;78.29
24045;BME280;26257;49.442;8.422;2022-12-19T10:50:45;101212.56;;;6.72;78.22
24045;BME280;26257;49.442;8.422;2022-12-19T10:53:12;101184.47;;;6.69;79.15
24045;BME280;26257;49.442;8.422;2022-12-19T10:55:51;101190.94;;;7.03;77.42
24045;BME280;26257;49.442;8.422;2022-12-19T10:58:41;101190.16;;;7.05;77.36
24045;BME280;26257;49.442;8.422;2022-12-19T11:01:26;101208.50;;;7.04;77.13
24045;BME280;26257;49.442;8.422;2022-12-19T11:04:22;101213.50;;;7.21;77.01
24045;BME280;26257;49.442;8.422;2022-12-19T11:09:31;101213.88;;;7.57;74.41
24045;BME280;26257;49.442;8.422;2022-12-19T11:12:09;101195.41;;;7.30;75.56
24045;BME280;26257;49.442;8.422;2022-12-19T11:14:49;101191.59;;;7.71;74.08
24045;BME280;26257;49.442;8.422;2022-12-19T11:20:09;101201.88;;;7.15;75.50
24045;BME280;26257;49.442;8.422;2022-12-19T11:22:35;101194.59;;;7.31;76.22
24045;BME280;26257;49.442;8.422;2022-12-19T11:25:03;101193.44;;;7.74;73.93
24045;BME280;26257;49.442;8.422;2022-12-19T11:27:40;101174.31;;;7.53;74.65
24045;BME280;26257;49.442;8.422;2022-12-19T11:32:43;101161.31;;;7.57;73.96
24045;BME280;26257;49.442;8.422;2022-12-19T11:38:04;101154.66;;;7.68;73.81
24045;BME280;26257;49.442;8.422;2022-12-19T11:41:08;101166.94;;;7.69;74.16
24045;BME280;26257;49.442;8.422;2022-12-19T11:49:21;101152.25;;;7.74;72.95
24045;BME280;26257;49.442;8.422;2022-12-19T11:51:59;101144.63;;;7.83;73.68
24045;BME280;26257;49.442;8.422;2022-12-19T11:57:14;101141.19;;;7.84;73.58
24045;BME280;26257;49.442;8.422;2022-12-19T11:59:39;101142.81;;;7.81;73.15
24045;BME280;26257;49.442;8.422;2022-12-19T12:05:20;101149.03;;;8.69;69.92
24045;BME280;26257;49.442;8.422;2022-12-19T12:10:29;101129.88;;;8.17;71.44
24045;BME280;26257;49.442;8.422;2022-12-19T12:13:05;101124.91;;;8.26;71.30
24045;BME280;26257;49.442;8.422;2022-12-19T12:26:30;101109.75;;;8.19;74.05
24045;BME280;26257;49.442;8.422;2022-12-19T12:32:01;101101.72;;;8.42;72.06
24045;BME280;26257;49.442;8.422;2022-12-19T12:39:41;101115.22;;;8.53;72.41
24045;BME280;26257;49.442;8.422;2022-12-19T12:44:40;101122.47;;;8.60;71.39
24045;BME280;26257;49.442;8.422;2022-12-19T12:47:24;101122.25;;;8.84;69.38
24045;BME280;26257;49.442;8.422;2022-12-19T12:50:13;101125.91;;;8.89;70.43
24045;BME280;26257;49.442;8.422;2022-12-19T12:52:58;101128.06;;;9.03;69.43
24045;BME280;26257;49.442;8.422;2022-12-19T12:55:29;101120.78;;;9.27;67.57
24045;BME280;26257;49.442;8.422;2022-12-19T12:57:56;101113.88;;;8.98;68.11
24045;BME280;26257;49.442;8.422;2022-12-19T13:08:30;101109.34;;;8.63;69.38
24045;BME280;26257;49.442;8.422;2022-12-19T13:10:58;101105.88;;;8.64;70.64
24045;BME280;26257;49.442;8.422;2022-12-19T13:19:13;101108.38;;;8.91;69.83
24045;BME280;26257;49.442;8.422;2022-12-19T13:33:04;101111.31;;;8.39;71.12
24045;BME280;26257;49.442;8.422;2022-12-19T13:37:47;101104.22;;;8.67;70.74
24045;BME280;26257;49.442;8.422;2022-12-19T13:43:17;101091.69;;;8.90;70.82
24045;BME280;26257;49.442;8.422;2022-12-19T13:48:54;101100.88;;;8.42;74.07
24045;BME280;26257;49.442;8.422;2022-12-19T13:51:21;101107.16;;;8.47;71.96
24045;BME280;26257;49.442;8.422;2022-12-19T13:53:51;101102.53;;;9.02;71.10
24045;BME280;26257;49.442;8.422;2022-12-19T13:56:18;101101.53;;;8.97;70.50
24045;BME280;26257;49.442;8.422;2022-12-19T13:58:53;101097.88;;;8.61;72.14
24045;BME280;26257;49.442;8.422;2022-12-19T14:01:27;101102.25;;;8.60;71.75
24045;BME280;26257;49.442;8.422;2022-12-19T14:03:55;101095.84;;;8.51;71.76
24045;BME280;26257;49.442;8.422;2022-12-19T14:06:27;101097.91;;;8.31;73.25
24045;BME280;26257;49.442;8.422;2022-12-19T14:08:58;101107.09;;;8.45;73.35
24045;BME280;26257;49.442;8.422;2022-12-19T14:11:26;101103.25;;;8.64;72.41
24045;BME280;26257;49.442;8.422;2022-12-19T14:13:58;101101.44;;;8.63;72.22
24045;BME280;26257;49.442;8.422;2022-12-19T14:16:44;101099.78;;;8.65;71.23
24045;BME280;26257;49.442;8.422;2022-12-19T14:19:22;101107.09;;;8.17;73.50
24045;BME280;26257;49.442;8.422;2022-12-19T14:21:48;101097.25;;;8.10;74.77
24045;BME280;26257;49.442;8.422;2022-12-19T14:24:15;101087.53;;;8.07;75.08
24045;BME280;26257;49.442;8.422;2022-12-19T14:26:42;101087.63;;;8.11;75.69
24045;BME280;26257;49.442;8.422;2022-12-19T14:29:16;101083.84;;;8.31;74.70
24045;BME280;26257;49.442;8.422;2022-12-19T14:31:46;101084.53;;;8.25;74.46
24045;BME280;26257;49.442;8.422;2022-12-19T14:34:18;101080.28;;;8.00;75.67
24045;BME280;26257;49.442;8.422;2022-12-19T14:36:51;101077.16;;;8.14;75.80
24045;BME280;26257;49.442;8.422;2022-12-19T14:39:22;101072.53;;;8.05;76.64
24045;BME280;26257;49.442;8.422;2022-12-19T14:41:52;101069.13;;;8.09;77.29
24045;BME280;26257;49.442;8.422;2022-12-19T14:44:55;101071.72;;;8.07;77.67
24045;BME280;26257;49.442;8.422;2022-12-19T14:47:26;101073.50;;;8.08;77.18
24045;BME280;26257;49.442;8.422;2022-12-19T14:49:58;101079.00;;;8.44;75.04
24045;BME280;26257;49.442;8.422;2022-12-19T14:52:38;101068.72;;;8.24;75.30
24045;BME280;26257;49.442;8.422;2022-12-19T14:57:46;101074.94;;;7.97;76.59
24045;BME280;26257;49.442;8.422;2022-12-19T15:00:40;101075.56;;;8.19;76.04
24045;BME280;26257;49.442;8.422;2022-12-19T15:03:07;101074.47;;;8.11;76.29
24045;BME280;26257;49.442;8.422;2022-12-19T15:05:33;101077.53;;;8.26;76.11
24045;BME280;26257;49.442;8.422;2022-12-19T15:07:59;101082.59;;;8.20;77.13
24045;BME280;26257;49.442;8.422;2022-12-19T15:10:33;101088.34;;;8.35;75.44
24045;BME280;26257;49.442;8.422;2022-12-19T15:13:23;101074.50;;;8.12;76.60
24045;BME280;26257;49.442;8.422;2022-12-19T15:15:56;101091.34;;;8.19;76.03
24045;BME280;26257;49.442;8.422;2022-12-19T15:21:00;101068.63;;;8.21;75.24
24045;BME280;26257;49.442;8.422;2022-12-19T15:23:27;101069.94;;;8.06;76.91
24045;BME280;26257;49.442;8.422;2022-12-19T15:25:54;101055.50;;;7.92;78.35
24045;BME280;26257;49.442;8.422;2022-12-19T15:28:22;101059.22;;;8.00;77.80
24045;BME280;26257;49.442;8.422;2022-12-19T15:30:57;101074.19;;;8.03;77.51
24045;BME280;26257;49.442;8.422;2022-12-19T15:33:24;101049.06;;;8.13;77.22
24045;BME280;26257;49.442;8.422;2022-12-19T15:35:49;101045.13;;;7.98;77.60
24045;BME280;26257;49.442;8.422;2022-12-19T15:38:15;101059.22;;;8.00;77.73
24045;BME280;26257;49.442;8.422;2022-12-19T15:40:40;101048.97;;;8.09;77.48
24045;BME280;26257;49.442;8.422;2022-12-19T15:43:17;101049.53;;;8.28;77.51
24045;BME280;26257;49.442;8.422;2022-12-19T15:45:45;101047.47;;;8.18;77.24
24045;BME280;26257;49.442;8.422;2022-12-19T15:48:15;101050.78;;;8.11;76.74
24045;BME280;26257;49.442;8.422;2022-12-19T15:50:42;101049.03;;;8.41;76.44
24045;BME280;26257;49.442;8.422;2022-12-19T15:53:21;101060.63;;;8.18;76.63
24045;BME280;26257;49.442;8.422;2022-12-19T15:55:49;101050.06;;;8.46;74.56
24045;BME280;26257;49.442;8.422;2022-12-19T15:58:16;101046.31;;;8.38;74.69
24045;BME280;26257;49.442;8.422;2022-12-19T16:00:48;101047.66;;;8.24;75.78
24045;BME280;26257;49.442;8.422;2022-12-19T16:03:14;101060.75;;;7.92;77.93
24045;BME280;26257;49.442;8.422;2022-12-19T16:05:40;101066.63;;;7.84;79.08
24045;BME280;26257;49.442;8.422;2022-12-19T16:08:16;101047.91;;;7.75;79.21
24045;BME280;26257;49.442;8.422;2022-12-19T16:10:44;101040.94;;;7.48;81.04